KTRM/TRM METAR and TAF weather

Enter ICAO airport designator
Station Type Date Time Source
KTRM METAR 2019/02/17 15:52 UTC NOAA

KTRM 171552Z AUTO 01009KT 10SM CLR 13/00 A2999 RMK AO2 SLP155 T01330000


Station Type Date Time Source
KTRM Decoded METAR 2019/02/17 15:52 UTC NOAA

Palm Springs, Jacqueline Cochran Regional Airport, CA, United States (KTRM) 33-37-36N 116-09-34W
Feb 17, 2019 - 10:52 AM EST / 2019.02.17 1552 UTC
Wind: from the N (010 degrees) at 10 MPH (9 KT):0
Visibility: 10 mile(s):0
Sky conditions: clear
Temperature: 55.9 F (13.3 C)
Dew Point: 32.0 F (0.0 C)
Relative Humidity: 40%
Pressure (altimeter): 29.99 in. Hg (1015 hPa)
ob: KTRM 171552Z AUTO 01009KT 10SM CLR 13/00 A2999 RMK AO2 SLP155 T01330000
cycle: 16

Station Type Date Time Source
KTRM TAF 2019/02/17 12:22 UTC NOAA

TAF KTRM 171120Z 1712/1812 28006KT P6SM SCT100
FM171900 30015G25KT P6SM SCT050 SCT100
FM180900 32010G20KT P6SM SCT050 SCT100


Example: see airport list